Time;durP1;ratioP1;P1;durP2;ratioP2;P2;SDS_P1;SDS_P2;PMS_P1;PMS_P2;Temp;Humidity;BMP_temperature;BMP_pressure;BME280_temperature;BME280_humidity;BME280_pressure;Samples;Min_cycle;Max_cycle;Signal;HPM_P1;HPM_P2
2021/11/10 00:01:39;;;;;;;6.03;3.05;;;;;;;4.37;72.83;96481.41;5071696;28;20090;-74
2021/11/10 00:04:05;;;;;;;3.30;2.25;;;;;;;4.32;73.25;96478.19;5070885;28;20024;-74
2021/11/10 00:06:30;;;;;;;3.75;2.63;;;;;;;4.33;73.60;96477.28;5053876;28;20502;-74
2021/11/10 00:08:56;;;;;;;4.20;2.65;;;;;;;4.33;72.91;96466.16;5054145;28;20505;-74
2021/11/10 00:11:21;;;;;;;2.72;2.22;;;;;;;4.35;73.24;96475.50;5070262;28;20048;-74
2021/11/10 00:13:46;;;;;;;4.40;2.60;;;;;;;4.34;73.30;96466.09;5070705;28;20024;-74
2021/11/10 00:16:12;;;;;;;3.55;2.67;;;;;;;4.12;73.27;96431.63;5071745;28;20055;-74
2021/11/10 00:18:37;;;;;;;3.08;2.35;;;;;;;4.30;73.30;96461.09;5071741;28;20020;-74
2021/11/10 00:21:03;;;;;;;3.60;2.45;;;;;;;4.39;73.26;96479.66;5071329;28;20029;-74
2021/11/10 00:23:29;;;;;;;3.85;2.40;;;;;;;4.28;73.00;96450.00;5053703;28;20067;-74
2021/11/10 00:25:54;;;;;;;3.15;2.22;;;;;;;4.43;73.14;96478.69;5070506;28;20020;-74
2021/11/10 00:28:20;;;;;;;3.03;2.38;;;;;;;4.43;72.81;96472.66;5053794;28;20071;-74
2021/11/10 00:30:45;;;;;;;3.67;2.50;;;;;;;4.40;72.90;96473.63;5070074;28;20055;-74
2021/11/10 00:33:11;;;;;;;4.35;2.00;;;;;;;4.37;72.99;96485.72;5072068;28;20033;-74
2021/11/10 00:35:36;;;;;;;3.45;2.25;;;;;;;4.34;73.15;96489.25;5036965;28;20040;-74
2021/11/10 00:38:02;;;;;;;3.70;2.60;;;;;;;4.33;73.10;96490.13;5070234;28;20024;-74
2021/11/10 00:40:27;;;;;;;3.30;2.28;;;;;;;4.35;72.49;96483.22;5071781;28;20039;-74
2021/11/10 00:42:53;;;;;;;2.83;2.03;;;;;;;4.31;72.61;96476.47;5072066;28;20059;-74
2021/11/10 00:45:18;;;;;;;4.50;1.70;;;;;;;4.35;72.24;96478.06;5070240;28;20024;-74
2021/11/10 00:47:43;;;;;;;3.03;1.95;;;;;;;4.32;72.72;96474.72;5071575;28;20079;-74
2021/11/10 00:50:09;;;;;;;3.65;2.50;;;;;;;4.29;72.55;96477.41;5071419;28;20032;-74
2021/11/10 00:52:34;;;;;;;2.85;1.85;;;;;;;4.24;72.46;96462.97;5070166;28;20056;-74
2021/11/10 00:55:00;;;;;;;2.67;1.67;;;;;;;4.33;72.73;96473.88;5070161;28;20051;-74
2021/11/10 00:57:25;;;;;;;2.90;1.95;;;;;;;4.29;72.57;96479.97;5054879;28;20032;-73
2021/11/10 00:59:51;;;;;;;3.08;1.85;;;;;;;4.22;72.87;96480.19;5076609;28;20028;-74
2021/11/10 01:02:16;;;;;;;3.20;2.00;;;;;;;4.18;72.46;96483.75;5076874;28;20043;-74
2021/11/10 01:04:42;;;;;;;2.63;1.65;;;;;;;4.17;72.62;96484.63;5076686;28;20024;-74
2021/11/10 01:07:07;;;;;;;4.00;2.53;;;;;;;4.16;72.62;96484.69;5076434;28;20037;-74
2021/11/10 01:09:39;;;;;;;3.70;2.47;;;;;;;4.15;72.21;96491.56;5076666;28;20101;-74
2021/11/10 01:12:07;;;;;;;3.33;2.10;;;;;;;4.13;71.97;96498.47;5078153;28;20094;-74
2021/11/10 01:14:32;;;;;;;3.05;2.03;;;;;;;4.06;72.14;96486.69;5077717;28;20035;-74
2021/11/10 01:16:57;;;;;;;4.05;1.83;;;;;;;3.84;72.30;96452.22;5076389;28;20036;-74
2021/11/10 01:19:23;;;;;;;2.75;1.90;;;;;;;4.06;72.11;96496.97;5077782;28;20032;-74
2021/11/10 01:21:48;;;;;;;3.03;2.00;;;;;;;4.06;72.34;96496.13;5076558;28;20093;-74
2021/11/10 01:24:14;;;;;;;3.42;1.95;;;;;;;4.06;72.35;96496.97;5059796;28;20024;-74
2021/11/10 01:26:39;;;;;;;2.53;1.80;;;;;;;4.09;72.65;96504.59;5076006;28;20105;-74
2021/11/10 01:29:05;;;;;;;2.63;1.77;;;;;;;4.13;72.22;96502.78;5059820;28;20024;-74
2021/11/10 01:31:30;;;;;;;2.50;1.73;;;;;;;4.18;72.15;96501.75;5076434;28;20044;-74
2021/11/10 01:33:56;;;;;;;2.58;1.55;;;;;;;4.21;72.34;96500.81;5076518;28;20024;-74
2021/11/10 01:36:21;;;;;;;2.90;2.00;;;;;;;4.15;71.94;96486.44;5077402;28;20380;-74
2021/11/10 01:38:47;;;;;;;2.50;1.60;;;;;;;4.27;72.32;96499.78;5076427;28;20055;-74
2021/11/10 01:41:13;;;;;;;2.97;1.67;;;;;;;4.22;71.53;96505.91;5077549;28;20017;-74
2021/11/10 01:43:38;;;;;;;2.38;1.98;;;;;;;4.18;71.34;96506.91;5059755;28;20031;-74
2021/11/10 01:46:04;;;;;;;2.92;1.83;;;;;;;4.13;71.52;96500.22;5075975;28;20406;-74
2021/11/10 01:48:29;;;;;;;3.22;1.92;;;;;;;4.06;71.29;96498.72;5077516;28;20062;-74
2021/11/10 01:50:54;;;;;;;2.33;1.65;;;;;;;4.12;71.72;96494.22;5076296;28;20086;-74
2021/11/10 01:53:20;;;;;;;2.72;1.90;;;;;;;4.13;71.65;96495.91;5076346;28;20032;-74
2021/11/10 01:55:45;;;;;;;2.70;1.88;;;;;;;4.10;71.37;96490.88;5075909;28;20070;-74
2021/11/10 01:58:11;;;;;;;3.33;1.67;;;;;;;4.15;71.67;96503.56;5076490;28;20041;-74
2021/11/10 02:00:38;;;;;;;2.60;1.58;;;;;;;4.15;71.51;96485.56;5076220;28;20044;-74
2021/11/10 02:03:05;;;;;;;2.47;1.60;;;;;;;4.16;71.34;96482.94;5043098;28;20434;-74
2021/11/10 02:05:31;;;;;;;4.82;1.92;;;;;;;4.22;71.19;96493.03;5059234;28;20478;-74
2021/11/10 02:07:56;;;;;;;2.92;1.88;;;;;;;4.09;71.53;96491.72;5076305;28;20054;-74
2021/11/10 02:10:24;;;;;;;2.78;1.92;;;;;;;4.13;71.46;96495.91;5055874;28;20051;-74
2021/11/10 02:12:53;;;;;;;3.05;2.10;;;;;;;4.15;71.83;96504.44;5074541;28;20284;-74
2021/11/10 02:15:19;;;;;;;3.50;2.10;;;;;;;4.10;72.06;96487.47;5072816;28;20063;-74
2021/11/10 02:17:52;;;;;;;3.00;1.95;;;;;;;4.14;72.02;96494.19;5056369;28;20490;-74
2021/11/10 02:20:18;;;;;;;3.25;2.30;;;;;;;4.15;71.95;96494.16;5056539;28;20028;-74
2021/11/10 02:22:44;;;;;;;2.90;2.20;;;;;;;4.05;72.07;96491.91;5072978;28;20028;-74
2021/11/10 02:25:10;;;;;;;3.50;2.38;;;;;;;4.01;72.52;96501.41;5073579;28;20482;-74
2021/11/10 02:27:37;;;;;;;4.07;2.50;;;;;;;4.02;73.02;96497.97;5072702;28;20159;-74
2021/11/10 02:30:05;;;;;;;3.20;2.20;;;;;;;3.80;72.90;96469.50;5056142;28;20028;-74
2021/11/10 02:32:30;;;;;;;3.30;2.30;;;;;;;3.96;73.16;96500.72;5056032;28;20477;-74
2021/11/10 02:34:56;;;;;;;4.15;2.90;;;;;;;4.05;73.29;96502.19;5072238;28;20036;-74
2021/11/10 02:37:21;;;;;;;3.65;2.58;;;;;;;4.10;73.72;96511.44;5074010;28;20032;-74
2021/11/10 02:39:47;;;;;;;3.83;2.47;;;;;;;4.04;73.56;96498.78;5039088;28;20040;-74
2021/11/10 02:42:14;;;;;;;3.40;2.50;;;;;;;4.26;73.45;96514.38;5055862;28;20108;-74
2021/11/10 02:44:39;;;;;;;3.45;2.70;;;;;;;4.26;73.56;96498.94;5055472;28;20028;-74
2021/11/10 02:47:04;;;;;;;4.10;2.90;;;;;;;4.28;73.48;96506.63;5039009;28;20501;-74
2021/11/10 02:49:30;;;;;;;3.97;2.88;;;;;;;4.22;73.06;96507.66;5055810;28;20477;-74
2021/11/10 02:52:07;;;;;;;3.60;2.85;;;;;;;4.30;73.25;96520.28;5055622;28;20063;-74
2021/11/10 02:54:34;;;;;;;3.63;2.90;;;;;;;4.27;73.33;96520.38;5055588;28;20033;-74
2021/11/10 02:57:01;;;;;;;3.47;2.80;;;;;;;4.25;72.71;96517.84;5073323;28;20103;-74
2021/11/10 02:59:26;;;;;;;3.40;2.75;;;;;;;4.19;72.82;96513.72;5073291;28;20028;-74
2021/11/10 03:01:53;;;;;;;3.88;2.67;;;;;;;4.17;72.34;96512.09;5038858;28;20075;-74
2021/11/10 03:04:23;;;;;;;3.45;2.55;;;;;;;4.16;72.60;96510.41;5055545;28;20509;-74
2021/11/10 03:06:49;;;;;;;4.13;2.60;;;;;;;4.19;72.36;96518.03;5071863;28;20486;-74
2021/11/10 03:09:16;;;;;;;4.07;2.60;;;;;;;4.10;72.44;96514.00;5072411;28;20131;-74
2021/11/10 03:11:41;;;;;;;4.15;2.65;;;;;;;4.17;72.27;96527.53;5055870;28;20040;-74
2021/11/10 03:14:07;;;;;;;3.50;2.80;;;;;;;4.19;71.95;96516.28;5073571;28;20024;-74
2021/11/10 03:16:32;;;;;;;3.97;2.63;;;;;;;4.15;72.15;96514.72;5073112;28;20090;-74
2021/11/10 03:18:58;;;;;;;3.33;2.53;;;;;;;4.09;72.28;96511.47;5055552;28;20033;-74
2021/11/10 03:21:23;;;;;;;3.83;3.03;;;;;;;4.07;72.00;96508.09;5071963;28;20040;-74
2021/11/10 03:23:48;;;;;;;4.38;2.65;;;;;;;4.10;71.91;96505.47;5055230;28;20032;-74
2021/11/10 03:26:14;;;;;;;3.40;2.70;;;;;;;4.13;71.51;96515.66;5071142;28;20479;-74
2021/11/10 03:28:40;;;;;;;4.32;2.97;;;;;;;4.08;71.44;96505.50;5071653;28;20029;-74
2021/11/10 03:31:05;;;;;;;4.97;3.00;;;;;;;4.09;71.57;96514.03;5054171;28;20062;-74
2021/11/10 03:33:31;;;;;;;3.78;2.95;;;;;;;4.15;71.53;96514.72;5070818;28;20070;-74
2021/11/10 03:35:56;;;;;;;3.50;2.65;;;;;;;4.17;71.34;96524.94;5071898;28;20024;-74
2021/11/10 03:38:22;;;;;;;3.90;3.00;;;;;;;4.15;71.16;96530.16;5070739;28;20024;-74
2021/11/10 03:40:47;;;;;;;6.85;3.33;;;;;;;4.09;71.19;96521.75;5054105;28;20021;-74
2021/11/10 03:43:12;;;;;;;4.40;2.70;;;;;;;4.11;70.41;96514.84;5072461;28;20048;-74
2021/11/10 03:45:38;;;;;;;3.72;2.95;;;;;;;4.11;70.43;96531.13;5070838;28;20024;-74
2021/11/10 03:48:04;;;;;;;4.30;3.33;;;;;;;4.08;70.72;96513.22;5072444;28;20498;-74
2021/11/10 03:50:29;;;;;;;3.55;2.80;;;;;;;4.09;70.44;96534.63;5070961;28;20298;-74
2021/11/10 03:52:55;;;;;;;4.63;3.10;;;;;;;4.14;70.58;96522.47;5070765;28;20039;-74
2021/11/10 03:55:20;;;;;;;4.18;2.80;;;;;;;3.92;70.38;96509.41;5071048;28;20032;-74
2021/11/10 03:57:46;;;;;;;3.92;3.15;;;;;;;4.10;69.86;96531.19;5071135;28;20379;-74
2021/11/10 04:00:12;;;;;;;3.92;3.05;;;;;;;3.98;69.89;96522.94;5054157;28;20052;-74
2021/11/10 04:02:37;;;;;;;4.20;2.92;;;;;;;4.02;70.33;96534.81;5070825;28;20509;-73
2021/11/10 04:05:03;;;;;;;4.90;3.05;;;;;;;3.98;70.33;96524.66;5070665;28;20017;-74
2021/11/10 04:07:28;;;;;;;3.65;2.50;;;;;;;3.89;70.67;96518.06;5070782;28;20043;-74
2021/11/10 04:09:54;;;;;;;3.85;2.70;;;;;;;3.87;70.39;96532.69;5070649;28;20020;-74
2021/11/10 04:12:19;;;;;;;3.95;2.55;;;;;;;3.86;70.57;96537.88;5070464;28;20024;-74
2021/11/10 04:14:45;;;;;;;3.60;2.50;;;;;;;3.72;71.00;96523.69;5070630;28;20107;-74
2021/11/10 04:17:10;;;;;;;4.18;2.63;;;;;;;3.47;69.29;96499.56;5072066;28;20043;-74
2021/11/10 04:19:36;;;;;;;4.20;2.95;;;;;;;3.40;70.04;96518.59;5071739;28;20029;-74
2021/11/10 04:22:02;;;;;;;3.08;2.33;;;;;;;3.39;70.16;96528.03;5070430;28;20064;-74
2021/11/10 04:24:28;;;;;;;4.45;3.15;;;;;;;3.34;70.43;96533.31;5037433;28;20116;-73
2021/11/10 04:26:53;;;;;;;4.85;3.55;;;;;;;3.26;70.73;96532.69;5070393;28;20039;-73
2021/11/10 04:29:19;;;;;;;4.55;3.45;;;;;;;3.29;71.23;96530.03;5070524;28;20029;-74
2021/11/10 04:31:44;;;;;;;4.18;3.17;;;;;;;3.29;70.96;96535.16;5071145;28;20036;-74
2021/11/10 04:34:10;;;;;;;4.40;3.42;;;;;;;3.25;71.00;96527.56;5070241;28;20093;-73
2021/11/10 04:36:36;;;;;;;4.15;2.95;;;;;;;3.22;71.41;96527.66;5070331;28;20060;-74
2021/11/10 04:39:02;;;;;;;5.82;3.50;;;;;;;3.22;70.97;96525.94;5070419;28;20024;-73
2021/11/10 04:41:27;;;;;;;4.63;3.47;;;;;;;3.28;70.50;96536.03;5069866;28;20077;-74
2021/11/10 04:43:53;;;;;;;4.15;3.10;;;;;;;3.26;70.70;96519.84;5053557;28;20033;-73
2021/11/10 04:48:44;;;;;;;4.65;3.30;;;;;;;3.31;70.70;96532.53;5072026;28;20032;-74
2021/11/10 04:51:10;;;;;;;4.35;2.97;;;;;;;3.28;70.57;96542.91;5036519;28;20031;-74
2021/11/10 04:53:38;;;;;;;4.32;3.28;;;;;;;3.26;70.76;96544.66;5071619;28;20029;-74
2021/11/10 04:56:04;;;;;;;5.28;3.50;;;;;;;3.28;70.59;96546.31;5070151;28;20402;-74
2021/11/10 04:58:29;;;;;;;4.95;3.30;;;;;;;3.29;70.61;96544.59;5053556;28;20067;-74
2021/11/10 05:00:55;;;;;;;5.57;4.18;;;;;;;3.28;70.73;96550.59;5069649;28;20048;-74
2021/11/10 05:03:21;;;;;;;5.00;4.05;;;;;;;3.28;70.50;96550.59;5053398;28;20122;-74
2021/11/10 05:05:46;;;;;;;4.47;3.60;;;;;;;3.27;70.66;96546.38;5053221;28;20265;-74
2021/11/10 05:08:12;;;;;;;4.95;3.65;;;;;;;3.10;70.60;96528.84;5070113;28;20040;-74
2021/11/10 05:10:37;;;;;;;4.43;3.42;;;;;;;3.22;70.98;96561.88;5052970;28;20021;-74
2021/11/10 05:13:03;;;;;;;6.93;3.95;;;;;;;3.15;71.01;96539.84;5070149;28;20408;-74
2021/11/10 05:15:28;;;;;;;5.75;3.83;;;;;;;3.14;70.87;96545.84;5070171;28;20486;-73
2021/11/10 05:17:54;;;;;;;4.45;3.60;;;;;;;3.17;70.98;96548.31;5069753;28;20456;-74
2021/11/10 05:20:19;;;;;;;4.43;3.38;;;;;;;3.13;71.16;96554.44;5069692;28;20477;-74
2021/11/10 05:22:44;;;;;;;4.00;2.90;;;;;;;3.06;71.39;96542.63;5070107;28;20025;-74
2021/11/10 05:25:10;;;;;;;4.40;3.60;;;;;;;3.05;70.94;96558.91;5053164;28;20047;-74
2021/11/10 05:27:35;;;;;;;4.78;3.33;;;;;;;3.01;70.80;96554.72;5069548;28;20028;-74
2021/11/10 05:30:03;;;;;;;4.70;3.30;;;;;;;3.07;71.01;96557.16;5069753;28;20025;-73
2021/11/10 05:32:28;;;;;;;4.18;3.50;;;;;;;3.00;71.23;96556.47;5069914;28;20036;-74
2021/11/10 05:34:58;;;;;;;5.00;4.07;;;;;;;3.06;70.96;96560.59;5069886;28;20555;-74
2021/11/10 05:37:24;;;;;;;6.43;3.72;;;;;;;3.05;70.90;96562.31;5053829;28;20025;-74
2021/11/10 05:39:50;;;;;;;4.53;3.45;;;;;;;2.84;71.06;96532.06;5053091;28;20033;-74
2021/11/10 05:42:16;;;;;;;4.70;3.22;;;;;;;3.02;71.26;96556.44;5069794;28;20029;-74
2021/11/10 05:44:41;;;;;;;4.35;3.35;;;;;;;3.09;70.86;96563.94;5070880;28;20024;-74
2021/11/10 05:47:09;;;;;;;3.97;3.03;;;;;;;3.14;70.78;96571.50;5074496;28;20105;-74
2021/11/10 05:49:34;;;;;;;5.72;3.42;;;;;;;3.28;70.10;96571.16;5073059;28;20058;-74
2021/11/10 05:52:00;;;;;;;4.35;3.25;;;;;;;3.32;69.88;96576.19;5056682;28;20522;-73
2021/11/10 05:54:25;;;;;;;4.28;3.15;;;;;;;3.39;69.81;96576.84;5074424;28;20020;-74
2021/11/10 05:56:52;;;;;;;4.18;3.08;;;;;;;3.37;69.88;96573.47;5073075;28;20036;-74
2021/11/10 05:59:17;;;;;;;5.20;2.97;;;;;;;3.38;69.65;96567.47;5074659;28;20505;-74
2021/11/10 06:01:43;;;;;;;3.97;3.10;;;;;;;3.46;70.03;96575.00;5073204;28;20052;-74
2021/11/10 06:04:08;;;;;;;4.45;3.30;;;;;;;3.52;69.81;96573.09;5056445;28;20333;-75
2021/11/10 06:06:34;;;;;;;4.88;3.25;;;;;;;3.57;69.71;96576.38;5072544;28;20093;-74
2021/11/10 06:08:59;;;;;;;4.32;3.35;;;;;;;3.55;69.63;96578.13;5073114;28;20032;-74
2021/11/10 06:11:24;;;;;;;5.88;3.50;;;;;;;3.67;68.34;96581.25;5074116;28;20093;-74
2021/11/10 06:13:50;;;;;;;4.53;3.38;;;;;;;3.61;68.00;96560.88;5072990;28;20513;-73
2021/11/10 06:16:15;;;;;;;4.20;2.90;;;;;;;3.79;68.03;96576.63;5073673;28;20418;-74
2021/11/10 06:18:41;;;;;;;4.60;3.33;;;;;;;3.91;67.58;96603.72;5072924;28;20059;-74
2021/11/10 06:21:06;;;;;;;5.20;3.17;;;;;;;3.99;67.11;96599.19;5072808;28;20090;-74
2021/11/10 06:23:32;;;;;;;4.38;3.20;;;;;;;4.13;66.45;96597.97;5072862;28;20025;-74
2021/11/10 06:25:57;;;;;;;4.10;3.20;;;;;;;4.03;66.85;96587.09;5055676;28;20055;-74
2021/11/10 06:28:23;;;;;;;5.80;3.50;;;;;;;4.10;67.54;96592.91;5039305;28;20109;-74
2021/11/10 06:30:49;;;;;;;4.70;3.17;;;;;;;4.15;68.33;96606.47;5055913;28;20441;-74
2021/11/10 06:33:15;;;;;;;4.32;3.28;;;;;;;4.21;67.73;96604.56;5072784;28;20040;-74
2021/11/10 06:35:40;;;;;;;4.75;3.20;;;;;;;4.18;68.16;96589.22;5055702;28;20078;-74
2021/11/10 06:38:06;;;;;;;4.43;3.17;;;;;;;4.34;68.18;96604.19;5072777;28;20040;-74
2021/11/10 06:40:31;;;;;;;4.28;3.15;;;;;;;4.41;67.77;96613.44;5055614;28;20024;-74
2021/11/10 06:42:56;;;;;;;5.07;3.13;;;;;;;4.43;67.47;96591.91;5072606;28;20048;-74
2021/11/10 06:45:22;;;;;;;4.78;3.17;;;;;;;4.68;67.57;96609.16;5038743;28;20102;-74
2021/11/10 06:47:48;;;;;;;5.07;3.78;;;;;;;4.69;66.24;96579.97;5073838;28;20037;-74
2021/11/10 06:50:13;;;;;;;4.70;3.35;;;;;;;4.92;66.70;96610.13;5072223;28;20024;-74
2021/11/10 06:52:39;;;;;;;5.03;3.85;;;;;;;5.01;67.74;96612.38;5055910;28;20029;-74
2021/11/10 06:55:05;;;;;;;5.47;3.63;;;;;;;5.11;68.00;96613.78;5038273;28;20020;-74
2021/11/10 06:57:31;;;;;;;10.48;6.55;;;;;;;5.23;68.01;96602.22;5055774;28;20036;-74
2021/11/10 06:59:57;;;;;;;16.88;8.80;;;;;;;5.34;66.51;96610.44;5055392;28;20048;-74
2021/11/10 07:02:22;;;;;;;7.93;4.75;;;;;;;5.49;65.71;96613.38;5039055;28;20363;-74
2021/11/10 07:04:48;;;;;;;9.13;7.28;;;;;;;5.59;65.06;96599.28;5054976;28;20035;-74
2021/11/10 07:07:14;;;;;;;7.60;5.70;;;;;;;5.68;65.27;96609.28;5071945;28;20054;-74
2021/11/10 07:09:39;;;;;;;5.45;3.92;;;;;;;5.86;63.68;96612.13;5038782;28;20060;-74
2021/11/10 07:12:05;;;;;;;6.10;3.90;;;;;;;5.85;62.72;96613.88;5071856;28;20048;-74
2021/11/10 07:14:31;;;;;;;5.60;4.03;;;;;;;5.90;63.65;96609.34;5071396;28;20491;-74
2021/11/10 07:16:56;;;;;;;5.60;3.92;;;;;;;6.05;64.38;96608.03;5071844;28;20044;-74
2021/11/10 07:19:22;;;;;;;7.05;4.38;;;;;;;6.12;63.51;96599.13;5072866;28;20024;-74
2021/11/10 07:21:47;;;;;;;6.07;3.90;;;;;;;6.19;64.03;96599.78;5071559;28;20040;-74
2021/11/10 07:24:13;;;;;;;5.60;3.85;;;;;;;6.44;68.11;96603.09;5071425;28;20024;-74
2021/11/10 07:26:38;;;;;;;5.30;4.47;;;;;;;6.72;67.22;96605.47;5054622;28;20494;-74
2021/11/10 07:29:03;;;;;;;6.80;5.72;;;;;;;7.24;70.29;96599.91;5072745;28;20024;-74
2021/11/10 07:31:29;;;;;;;4.93;3.30;;;;;;;7.64;62.57;96600.00;5054462;28;20062;-74
2021/11/10 07:33:55;;;;;;;5.40;3.70;;;;;;;7.86;60.98;96599.94;5071463;28;20025;-74
2021/11/10 07:36:22;;;;;;;3.75;2.80;;;;;;;7.90;60.22;96602.28;5054637;28;20049;-74
2021/11/10 07:38:48;;;;;;;4.22;2.75;;;;;;;7.84;57.78;96603.41;5071243;28;20035;-75
2021/11/10 07:41:16;;;;;;;3.67;2.95;;;;;;;7.81;56.21;96610.47;5070964;28;20454;-74
2021/11/10 07:43:41;;;;;;;4.47;2.63;;;;;;;7.69;56.35;96609.25;5072127;28;20025;-74
2021/11/10 07:46:14;;;;;;;3.47;2.67;;;;;;;7.81;57.82;96607.88;5071166;28;20036;-74
2021/11/10 07:48:40;;;;;;;3.88;2.97;;;;;;;7.90;56.98;96601.47;5055452;28;20112;-74
2021/11/10 07:51:06;;;;;;;5.50;4.18;;;;;;;7.87;56.71;96604.19;5070984;28;20032;-74
2021/11/10 07:53:31;;;;;;;6.18;5.13;;;;;;;7.70;57.21;96589.41;5070741;28;20028;-74
2021/11/10 07:55:57;;;;;;;3.42;2.80;;;;;;;7.81;56.45;96597.53;5071014;28;20043;-74
2021/11/10 07:58:22;;;;;;;4.63;3.00;;;;;;;7.92;56.83;96599.66;5071093;28;20017;-74
2021/11/10 08:00:48;;;;;;;3.47;2.63;;;;;;;7.97;56.34;96590.78;5070724;28;20037;-74
2021/11/10 08:03:13;;;;;;;3.40;2.60;;;;;;;8.14;56.33;96602.13;5053798;28;20040;-74
2021/11/10 08:05:38;;;;;;;3.70;2.95;;;;;;;8.26;56.35;96584.28;5072165;28;20082;-74
2021/11/10 08:08:04;;;;;;;4.25;2.80;;;;;;;8.39;55.49;96599.31;5053550;28;20032;-74
2021/11/10 08:10:30;;;;;;;4.05;2.45;;;;;;;8.56;55.09;96601.13;5053717;28;20024;-74
2021/11/10 08:12:55;;;;;;;3.60;2.78;;;;;;;8.60;52.14;96587.94;5071541;28;20032;-74
2021/11/10 08:15:21;;;;;;;4.13;3.10;;;;;;;8.67;53.56;96591.09;5070564;28;20044;-74
2021/11/10 08:17:46;;;;;;;4.13;2.55;;;;;;;8.88;52.72;96602.16;5070439;28;20028;-74
2021/11/10 08:20:16;;;;;;;2.90;2.22;;;;;;;9.03;52.64;96585.06;5070212;28;20037;-74
2021/11/10 08:22:42;;;;;;;4.65;2.65;;;;;;;9.13;51.08;96586.28;5054191;28;20032;-74
2021/11/10 08:25:08;;;;;;;3.08;2.53;;;;;;;8.77;50.14;96579.34;5053787;28;20028;-74
2021/11/10 08:27:35;;;;;;;3.10;2.40;;;;;;;8.82;50.15;96595.53;5053827;28;20058;-74
2021/11/10 08:30:12;;;;;;;3.20;2.55;;;;;;;8.89;51.49;96583.97;5070331;28;20059;-74
2021/11/10 08:32:38;;;;;;;3.45;2.90;;;;;;;8.90;50.36;96585.63;5070203;28;20029;-74
2021/11/10 08:35:04;;;;;;;4.88;2.60;;;;;;;8.92;50.48;96580.41;5053691;28;20127;-74
2021/11/10 08:37:31;;;;;;;3.95;2.67;;;;;;;9.02;51.80;96579.00;5070615;28;20036;-74
2021/11/10 08:39:56;;;;;;;3.70;2.60;;;;;;;9.17;51.82;96567.91;5053733;28;20516;-74
2021/11/10 08:42:22;;;;;;;4.28;3.00;;;;;;;9.26;50.78;96570.97;5053443;28;20032;-74
2021/11/10 08:44:51;;;;;;;4.22;2.90;;;;;;;9.18;49.62;96563.56;5070239;28;20571;-74
2021/11/10 08:47:18;;;;;;;3.83;2.88;;;;;;;9.21;51.23;96572.94;5070166;28;20068;-74
2021/11/10 08:49:44;;;;;;;3.90;2.97;;;;;;;9.42;51.22;96560.63;5071195;28;20057;-74
2021/11/10 08:52:11;;;;;;;3.78;2.80;;;;;;;9.49;51.01;96564.59;5070018;28;20052;-74
2021/11/10 08:54:36;;;;;;;3.17;2.38;;;;;;;9.57;50.20;96547.72;5069928;28;20051;-74
2021/11/10 08:57:01;;;;;;;3.30;2.65;;;;;;;9.70;49.75;96562.69;5071477;28;20540;-75
2021/11/10 08:59:27;;;;;;;4.80;2.80;;;;;;;9.67;49.46;96542.06;5070182;28;20111;-74
2021/11/10 09:01:53;;;;;;;4.13;2.60;;;;;;;9.57;48.72;96544.31;5082441;28;20514;-74
2021/11/10 09:04:19;;;;;;;3.03;2.38;;;;;;;9.56;49.16;96553.84;5073334;28;20620;-75
2021/11/10 09:06:45;;;;;;;3.95;2.90;;;;;;;9.68;49.15;96546.34;5091333;28;20036;-75
2021/11/10 09:09:10;;;;;;;3.60;2.88;;;;;;;9.67;48.99;96553.31;5091380;28;20020;-74
2021/11/10 09:11:36;;;;;;;3.42;2.60;;;;;;;9.69;48.93;96543.66;5072874;28;20043;-74
2021/11/10 09:14:02;;;;;;;4.60;2.50;;;;;;;9.68;48.24;96546.34;5073280;28;20024;-74
2021/11/10 09:16:27;;;;;;;3.08;2.53;;;;;;;9.85;48.60;96544.53;5091222;28;20032;-74
2021/11/10 09:18:52;;;;;;;3.55;2.65;;;;;;;9.81;47.60;96548.22;5091785;28;20039;-75
2021/11/10 09:21:18;;;;;;;3.67;2.40;;;;;;;9.80;47.14;96551.72;5095088;28;20509;-74
2021/11/10 09:23:43;;;;;;;2.88;2.40;;;;;;;9.63;47.53;96539.63;5095411;28;20061;-74
2021/11/10 09:26:09;;;;;;;4.32;3.67;;;;;;;9.67;48.25;96539.47;5095355;28;20025;-74
2021/11/10 09:28:36;;;;;;;5.50;4.07;;;;;;;9.77;49.27;96532.88;5093671;28;20036;-75
2021/11/10 09:31:01;;;;;;;2.85;2.35;;;;;;;9.87;47.95;96531.50;5076974;28;20032;-75
2021/11/10 09:33:27;;;;;;;3.92;2.55;;;;;;;9.76;48.23;96526.03;5093937;28;20547;-75
2021/11/10 09:35:53;;;;;;;3.38;2.35;;;;;;;9.75;48.56;96524.34;5093792;28;20028;-75
2021/11/10 09:38:19;;;;;;;3.63;2.38;;;;;;;9.81;48.25;96517.09;5093754;28;20035;-75
2021/11/10 09:40:45;;;;;;;3.67;2.70;;;;;;;9.88;48.58;96512.38;5076936;28;20028;-74
2021/11/10 09:43:10;;;;;;;4.03;2.60;;;;;;;9.96;48.29;96517.19;5093729;28;20529;-75
2021/11/10 09:45:36;;;;;;;3.40;2.65;;;;;;;10.04;47.06;96515.00;5059995;28;20120;-74
2021/11/10 09:48:07;;;;;;;4.72;2.65;;;;;;;10.06;47.91;96515.78;5076516;28;20575;-74
2021/11/10 09:50:32;;;;;;;3.97;2.53;;;;;;;10.07;47.85;96513.09;5094491;28;20119;-74
2021/11/10 09:52:58;;;;;;;3.20;2.65;;;;;;;10.07;46.67;96496.66;5093691;28;20162;-74
2021/11/10 09:55:25;;;;;;;2.97;2.22;;;;;;;9.90;46.72;96509.72;5093409;28;20450;-74
2021/11/10 09:57:51;;;;;;;3.58;2.60;;;;;;;9.88;47.58;96496.00;5076716;28;20040;-74
2021/11/10 10:00:23;;;;;;;3.72;2.90;;;;;;;9.97;47.61;96498.06;5075967;28;20426;-74
2021/11/10 10:02:49;;;;;;;3.85;2.30;;;;;;;10.00;47.19;96495.31;5077514;28;20486;-74
2021/11/10 10:05:15;;;;;;;3.65;2.80;;;;;;;10.16;47.00;96495.34;5076348;28;20039;-74
2021/11/10 10:07:40;;;;;;;3.13;2.42;;;;;;;10.00;46.97;96474.53;5094837;28;20482;-74
2021/11/10 10:10:06;;;;;;;3.75;2.70;;;;;;;10.06;47.36;96482.84;5092910;28;20020;-74
2021/11/10 10:12:31;;;;;;;4.22;3.30;;;;;;;10.05;47.25;96475.13;5093517;28;20036;-74
2021/11/10 10:14:57;;;;;;;3.38;2.60;;;;;;;10.24;47.88;96473.22;5093128;28;20028;-74
2021/11/10 10:17:42;;;;;;;3.40;2.65;;;;;;;10.46;47.39;96472.06;5076271;28;20032;-74
2021/11/10 10:20:31;;;;;;;3.30;2.60;;;;;;;10.55;45.65;96468.09;5094251;28;20024;-74
2021/11/10 10:23:01;;;;;;;4.35;2.92;;;;;;;10.49;46.33;96467.50;5093210;28;20035;-75
2021/11/10 10:25:46;;;;;;;3.95;3.30;;;;;;;10.46;46.90;96461.66;5092705;28;20032;-74
2021/11/10 10:28:18;;;;;;;4.80;3.20;;;;;;;10.54;46.14;96463.84;5094408;28;20040;-74
2021/11/10 10:30:48;;;;;;;8.25;3.22;;;;;;;10.49;45.67;96457.13;5093466;28;20024;-74
2021/11/10 10:33:25;;;;;;;4.43;2.80;;;;;;;10.51;46.62;96454.44;5092962;28;20043;-74
2021/11/10 10:35:51;;;;;;;4.90;3.60;;;;;;;10.62;47.01;96449.47;5076755;28;20444;-74
2021/11/10 10:38:22;;;;;;;3.25;2.50;;;;;;;10.80;45.61;96438.94;5094221;28;20029;-74
2021/11/10 10:40:49;;;;;;;3.58;2.78;;;;;;;10.66;45.44;96445.78;5093516;28;20028;-74
2021/11/10 10:43:15;;;;;;;3.03;2.60;;;;;;;10.66;45.71;96432.78;5075965;28;20051;-74
2021/11/10 10:45:43;;;;;;;3.75;2.90;;;;;;;10.86;46.03;96447.22;5092413;28;20052;-75
2021/11/10 10:48:15;;;;;;;3.25;2.55;;;;;;;10.85;45.40;96442.13;5092296;28;20111;-75
2021/11/10 10:50:43;;;;;;;3.53;2.88;;;;;;;10.77;44.13;96428.72;5093267;28;20028;-75
2021/11/10 10:53:14;;;;;;;3.40;2.58;;;;;;;10.63;44.78;96432.94;5092502;28;20036;-75
2021/11/10 10:55:42;;;;;;;3.58;2.70;;;;;;;10.53;45.64;96431.81;5075374;28;20028;-75
2021/11/10 10:58:30;;;;;;;3.88;3.22;;;;;;;10.59;46.00;96430.63;5058975;28;20028;-75
2021/11/10 11:00:56;;;;;;;3.10;2.63;;;;;;;10.61;45.07;96441.75;5077800;28;20059;-74
2021/11/10 11:03:22;;;;;;;4.68;2.92;;;;;;;10.51;45.22;96437.09;5075482;28;20032;-74
2021/11/10 11:05:48;;;;;;;4.00;2.88;;;;;;;10.36;45.20;96421.53;5091721;28;20421;-74
2021/11/10 11:08:34;;;;;;;3.72;2.40;;;;;;;10.38;45.27;96415.31;5092338;28;20028;-74
2021/11/10 11:11:21;;;;;;;3.60;2.60;;;;;;;10.45;44.81;96441.81;5058491;28;20097;-74
2021/11/10 11:13:52;;;;;;;3.83;3.03;;;;;;;10.12;45.72;96421.97;5076044;28;20032;-74
2021/11/10 11:16:20;;;;;;;3.90;3.00;;;;;;;10.19;46.00;96412.88;5058759;28;20066;-74
2021/11/10 11:18:45;;;;;;;3.78;2.85;;;;;;;10.22;46.28;96410.16;5092065;28;20059;-74
2021/11/10 11:21:24;;;;;;;4.85;3.28;;;;;;;10.29;45.06;96413.25;5091618;28;20036;-74
2021/11/10 11:23:51;;;;;;;4.55;3.00;;;;;;;10.16;45.98;96407.03;5091523;28;20042;-74
2021/11/10 11:26:39;;;;;;;6.10;3.20;;;;;;;10.17;46.32;96411.28;5074897;28;20026;-74
2021/11/10 11:29:24;;;;;;;3.90;3.00;;;;;;;10.18;46.47;96413.81;5091914;28;20036;-74
2021/11/10 11:31:50;;;;;;;3.38;3.00;;;;;;;10.29;46.26;96410.66;5075054;28;20106;-74
2021/11/10 11:34:15;;;;;;;4.75;3.42;;;;;;;10.33;46.14;96400.94;5091464;28;20509;-74
2021/11/10 11:36:45;;;;;;;4.15;3.00;;;;;;;10.33;46.14;96390.53;5074226;28;20043;-74
2021/11/10 11:39:11;;;;;;;3.88;3.10;;;;;;;10.49;45.08;96401.72;5074186;28;20480;-75
2021/11/10 11:41:38;;;;;;;3.90;3.15;;;;;;;10.52;45.80;96401.56;5092070;28;20047;-74